sensor_id;sensor_type;location;lat;lon;timestamp;pressure;altitude;pressure_sealevel;temperature;humidity
41467;BME280;27205;53.690;19.948;2023-04-05T00:01:29;100514.39;;;0.67;53.92
41467;BME280;27205;53.690;19.948;2023-04-05T00:06:33;100509.18;;;0.76;53.87
41467;BME280;27205;53.690;19.948;2023-04-05T00:11:37;100512.44;;;0.81;54.15
41467;BME280;27205;53.690;19.948;2023-04-05T00:16:41;100510.40;;;0.91;54.06
41467;BME280;27205;53.690;19.948;2023-04-05T00:21:44;100504.92;;;1.04;54.16
41467;BME280;27205;53.690;19.948;2023-04-05T00:26:48;100503.52;;;1.12;54.18
41467;BME280;27205;53.690;19.948;2023-04-05T00:31:52;100497.85;;;1.15;54.43
41467;BME280;27205;53.690;19.948;2023-04-05T00:36:56;100494.65;;;1.17;54.82
41467;BME280;27205;53.690;19.948;2023-04-05T00:42:02;100487.36;;;1.21;54.86
41467;BME280;27205;53.690;19.948;2023-04-05T00:47:06;100487.09;;;1.27;55.02
41467;BME280;27205;53.690;19.948;2023-04-05T00:52:10;100482.43;;;1.31;55.22
41467;BME280;27205;53.690;19.948;2023-04-05T00:57:15;100484.80;;;1.36;55.55
41467;BME280;27205;53.690;19.948;2023-04-05T01:02:23;100486.25;;;1.28;55.77
41467;BME280;27205;53.690;19.948;2023-04-05T01:07:45;100481.06;;;1.40;56.00
41467;BME280;27205;53.690;19.948;2023-04-05T01:12:52;100480.31;;;1.50;55.77
41467;BME280;27205;53.690;19.948;2023-04-05T01:17:56;100477.16;;;1.60;56.12
41467;BME280;27205;53.690;19.948;2023-04-05T01:23:16;100476.50;;;1.67;56.14
41467;BME280;27205;53.690;19.948;2023-04-05T01:34:19;100475.38;;;1.74;56.17
41467;BME280;27205;53.690;19.948;2023-04-05T01:39:28;100481.38;;;1.81;56.39
41467;BME280;27205;53.690;19.948;2023-04-05T01:44:33;100479.24;;;1.86;56.57
41467;BME280;27205;53.690;19.948;2023-04-05T01:49:36;100475.27;;;1.88;56.63
41467;BME280;27205;53.690;19.948;2023-04-05T01:54:40;100475.42;;;1.89;57.00
41467;BME280;27205;53.690;19.948;2023-04-05T01:59:43;100474.17;;;1.91;57.10
41467;BME280;27205;53.690;19.948;2023-04-05T02:04:47;100476.98;;;1.89;56.99
41467;BME280;27205;53.690;19.948;2023-04-05T02:09:50;100471.00;;;1.90;57.25
41467;BME280;27205;53.690;19.948;2023-04-05T02:14:54;100463.59;;;1.85;57.46
41467;BME280;27205;53.690;19.948;2023-04-05T02:19:58;100464.29;;;1.83;58.00
41467;BME280;27205;53.690;19.948;2023-04-05T02:25:11;100463.17;;;1.88;57.91
41467;BME280;27205;53.690;19.948;2023-04-05T02:30:15;100458.23;;;1.95;57.91
41467;BME280;27205;53.690;19.948;2023-04-05T02:35:18;100460.23;;;1.98;57.96
41467;BME280;27205;53.690;19.948;2023-04-05T02:40:23;100459.27;;;2.02;57.95
41467;BME280;27205;53.690;19.948;2023-04-05T02:45:27;100458.38;;;2.07;57.97
41467;BME280;27205;53.690;19.948;2023-04-05T02:50:31;100456.46;;;2.12;57.94
41467;BME280;27205;53.690;19.948;2023-04-05T02:55:34;100449.21;;;2.16;58.11
41467;BME280;27205;53.690;19.948;2023-04-05T03:00:38;100444.20;;;2.11;58.44
41467;BME280;27205;53.690;19.948;2023-04-05T03:05:43;100441.52;;;2.08;58.51
41467;BME280;27205;53.690;19.948;2023-04-05T03:10:47;100439.96;;;2.07;58.53
41467;BME280;27205;53.690;19.948;2023-04-05T03:15:53;100440.30;;;2.03;58.60
41467;BME280;27205;53.690;19.948;2023-04-05T03:20:57;100447.77;;;2.01;58.66
41467;BME280;27205;53.690;19.948;2023-04-05T03:26:02;100448.41;;;2.00;58.76
41467;BME280;27205;53.690;19.948;2023-04-05T03:31:06;100445.09;;;1.98;58.74
41467;BME280;27205;53.690;19.948;2023-04-05T03:36:10;100442.85;;;1.98;58.93
41467;BME280;27205;53.690;19.948;2023-04-05T03:41:13;100442.76;;;1.89;59.19
41467;BME280;27205;53.690;19.948;2023-04-05T03:46:18;100434.66;;;1.81;59.32
41467;BME280;27205;53.690;19.948;2023-04-05T03:51:22;100433.48;;;1.83;59.49
41467;BME280;27205;53.690;19.948;2023-04-05T03:56:25;100431.02;;;1.82;59.45
41467;BME280;27205;53.690;19.948;2023-04-05T04:01:29;100418.98;;;1.82;59.51
41467;BME280;27205;53.690;19.948;2023-04-05T04:06:33;100420.31;;;1.81;59.68
41467;BME280;27205;53.690;19.948;2023-04-05T04:11:36;100423.25;;;1.83;59.75
41467;BME280;27205;53.690;19.948;2023-04-05T04:16:40;100426.46;;;1.87;59.81
41467;BME280;27205;53.690;19.948;2023-04-05T04:21:43;100425.98;;;1.89;59.77
41467;BME280;27205;53.690;19.948;2023-04-05T04:26:53;100428.71;;;1.89;59.86
41467;BME280;27205;53.690;19.948;2023-04-05T04:31:56;100432.55;;;1.93;59.96
41467;BME280;27205;53.690;19.948;2023-04-05T04:37:00;100430.50;;;1.98;60.21
41467;BME280;27205;53.690;19.948;2023-04-05T04:42:03;100436.30;;;2.01;60.12
41467;BME280;27205;53.690;19.948;2023-04-05T04:47:07;100434.10;;;2.04;60.07
41467;BME280;27205;53.690;19.948;2023-04-05T04:52:16;100436.56;;;2.07;60.38
41467;BME280;27205;53.690;19.948;2023-04-05T04:57:20;100440.16;;;2.03;60.18
41467;BME280;27205;53.690;19.948;2023-04-05T05:02:24;100433.35;;;2.00;60.21
41467;BME280;27205;53.690;19.948;2023-04-05T05:07:28;100441.95;;;2.02;60.47
41467;BME280;27205;53.690;19.948;2023-04-05T05:12:32;100438.45;;;2.04;60.54
41467;BME280;27205;53.690;19.948;2023-04-05T05:17:35;100444.50;;;2.05;60.51
41467;BME280;27205;53.690;19.948;2023-04-05T05:22:39;100444.73;;;2.06;60.81
41467;BME280;27205;53.690;19.948;2023-04-05T05:27:43;100445.48;;;2.06;60.78
41467;BME280;27205;53.690;19.948;2023-04-05T05:32:47;100444.98;;;2.11;60.82
41467;BME280;27205;53.690;19.948;2023-04-05T05:37:51;100443.52;;;2.20;60.93
41467;BME280;27205;53.690;19.948;2023-04-05T05:42:54;100451.39;;;2.33;60.94
41467;BME280;27205;53.690;19.948;2023-04-05T05:47:58;100454.45;;;2.54;60.90
41467;BME280;27205;53.690;19.948;2023-04-05T05:53:01;100453.11;;;2.78;60.96
41467;BME280;27205;53.690;19.948;2023-04-05T05:58:05;100455.65;;;3.01;61.06
41467;BME280;27205;53.690;19.948;2023-04-05T06:03:09;100456.50;;;3.27;61.16
41467;BME280;27205;53.690;19.948;2023-04-05T06:08:14;100451.26;;;3.47;60.93
41467;BME280;27205;53.690;19.948;2023-04-05T06:13:18;100455.00;;;3.68;61.12
41467;BME280;27205;53.690;19.948;2023-04-05T06:18:22;100450.45;;;3.91;61.11
41467;BME280;27205;53.690;19.948;2023-04-05T06:23:25;100454.12;;;4.14;60.97
41467;BME280;27205;53.690;19.948;2023-04-05T06:28:28;100456.80;;;4.40;60.95
41467;BME280;27205;53.690;19.948;2023-04-05T06:33:32;100452.06;;;4.53;60.87
41467;BME280;27205;53.690;19.948;2023-04-05T06:38:36;100451.27;;;4.63;60.75
41467;BME280;27205;53.690;19.948;2023-04-05T06:43:39;100449.64;;;4.79;60.66
41467;BME280;27205;53.690;19.948;2023-04-05T06:48:43;100447.50;;;4.68;60.23
41467;BME280;27205;53.690;19.948;2023-04-05T06:53:46;100446.74;;;4.41;60.18
41467;BME280;27205;53.690;19.948;2023-04-05T06:58:50;100446.18;;;4.63;60.11
41467;BME280;27205;53.690;19.948;2023-04-05T07:03:54;100451.40;;;4.96;59.73
41467;BME280;27205;53.690;19.948;2023-04-05T07:08:57;100444.41;;;5.25;59.29
41467;BME280;27205;53.690;19.948;2023-04-05T07:14:01;100449.68;;;5.45;58.33
41467;BME280;27205;53.690;19.948;2023-04-05T07:19:04;100458.34;;;5.57;56.96
41467;BME280;27205;53.690;19.948;2023-04-05T07:24:08;100456.45;;;5.64;56.36
41467;BME280;27205;53.690;19.948;2023-04-05T07:29:12;100458.48;;;5.71;55.51
41467;BME280;27205;53.690;19.948;2023-04-05T07:34:15;100456.01;;;5.63;54.58
41467;BME280;27205;53.690;19.948;2023-04-05T07:39:19;100460.86;;;5.69;53.99
41467;BME280;27205;53.690;19.948;2023-04-05T07:44:23;100460.00;;;5.66;52.75
41467;BME280;27205;53.690;19.948;2023-04-05T07:49:27;100459.58;;;5.60;52.05
41467;BME280;27205;53.690;19.948;2023-04-05T07:54:31;100465.48;;;5.61;51.74
41467;BME280;27205;53.690;19.948;2023-04-05T07:59:37;100463.41;;;5.70;51.84
41467;BME280;27205;53.690;19.948;2023-04-05T08:04:41;100469.42;;;5.81;51.37
41467;BME280;27205;53.690;19.948;2023-04-05T08:09:45;100470.81;;;5.82;50.64
41467;BME280;27205;53.690;19.948;2023-04-05T08:14:48;100471.27;;;5.75;50.15
41467;BME280;27205;53.690;19.948;2023-04-05T08:19:52;100472.00;;;5.88;50.45
41467;BME280;27205;53.690;19.948;2023-04-05T08:35:20;100480.41;;;6.16;49.66
41467;BME280;27205;53.690;19.948;2023-04-05T08:40:40;100482.41;;;6.04;49.58
41467;BME280;27205;53.690;19.948;2023-04-05T08:45:51;100484.25;;;6.03;49.25
41467;BME280;27205;53.690;19.948;2023-04-05T08:50:55;100481.80;;;6.20;49.63
41467;BME280;27205;53.690;19.948;2023-04-05T08:55:59;100485.24;;;6.42;49.50
41467;BME280;27205;53.690;19.948;2023-04-05T09:01:05;100489.14;;;6.52;48.76
41467;BME280;27205;53.690;19.948;2023-04-05T09:06:08;100489.39;;;6.64;49.00
41467;BME280;27205;53.690;19.948;2023-04-05T09:11:15;100495.14;;;6.85;48.66
41467;BME280;27205;53.690;19.948;2023-04-05T09:16:19;100490.98;;;6.89;48.94
41467;BME280;27205;53.690;19.948;2023-04-05T09:21:23;100496.20;;;7.01;48.84
41467;BME280;27205;53.690;19.948;2023-04-05T09:26:26;100498.70;;;7.01;48.59
41467;BME280;27205;53.690;19.948;2023-04-05T09:31:35;100495.48;;;7.05;48.95
41467;BME280;27205;53.690;19.948;2023-04-05T09:36:42;100494.39;;;7.27;48.90
41467;BME280;27205;53.690;19.948;2023-04-05T09:42:09;100500.46;;;7.28;48.21
41467;BME280;27205;53.690;19.948;2023-04-05T09:47:18;100497.97;;;7.36;47.94
41467;BME280;27205;53.690;19.948;2023-04-05T09:57:32;100505.64;;;8.03;48.21
41467;BME280;27205;53.690;19.948;2023-04-05T10:02:38;100510.50;;;8.55;48.15
41467;BME280;27205;53.690;19.948;2023-04-05T10:07:42;100514.45;;;8.84;47.34
41467;BME280;27205;53.690;19.948;2023-04-05T10:12:47;100513.04;;;8.89;46.98
41467;BME280;27205;53.690;19.948;2023-04-05T10:17:55;100515.64;;;8.98;46.60
41467;BME280;27205;53.690;19.948;2023-04-05T10:23:16;100518.11;;;8.97;46.46
41467;BME280;27205;53.690;19.948;2023-04-05T10:28:33;100521.73;;;9.12;46.29
41467;BME280;27205;53.690;19.948;2023-04-05T10:33:43;100519.31;;;9.14;46.18
41467;BME280;27205;53.690;19.948;2023-04-05T10:39:03;100520.60;;;9.19;45.57
41467;BME280;27205;53.690;19.948;2023-04-05T10:44:08;100527.66;;;9.18;45.83
41467;BME280;27205;53.690;19.948;2023-04-05T10:49:46;100517.48;;;9.57;45.66
41467;BME280;27205;53.690;19.948;2023-04-05T10:54:51;100515.49;;;9.99;45.90
41467;BME280;27205;53.690;19.948;2023-04-05T10:59:55;100517.30;;;10.49;45.14
41467;BME280;27205;53.690;19.948;2023-04-05T11:05:04;100515.02;;;10.35;44.48
41467;BME280;27205;53.690;19.948;2023-04-05T11:10:16;100513.55;;;10.46;44.54
41467;BME280;27205;53.690;19.948;2023-04-05T11:30:54;100511.71;;;9.46;43.79
41467;BME280;27205;53.690;19.948;2023-04-05T11:36:07;100522.51;;;9.19;43.42
41467;BME280;27205;53.690;19.948;2023-04-05T11:41:13;100521.73;;;8.87;43.44
41467;BME280;27205;53.690;19.948;2023-04-05T11:46:20;100520.64;;;8.50;43.38
41467;BME280;27205;53.690;19.948;2023-04-05T11:51:24;100525.02;;;8.29;43.60
41467;BME280;27205;53.690;19.948;2023-04-05T11:56:28;100522.73;;;8.16;43.44
41467;BME280;27205;53.690;19.948;2023-04-05T12:01:32;100522.09;;;8.06;43.66
41467;BME280;27205;53.690;19.948;2023-04-05T12:06:35;100524.50;;;8.12;43.57
41467;BME280;27205;53.690;19.948;2023-04-05T12:11:39;100522.83;;;8.13;43.69
41467;BME280;27205;53.690;19.948;2023-04-05T12:16:49;100521.16;;;8.01;43.54
41467;BME280;27205;53.690;19.948;2023-04-05T12:21:52;100515.86;;;7.69;43.92
41467;BME280;27205;53.690;19.948;2023-04-05T12:26:56;100511.11;;;7.36;43.80
41467;BME280;27205;53.690;19.948;2023-04-05T12:32:03;100512.38;;;6.93;44.20
41467;BME280;27205;53.690;19.948;2023-04-05T12:37:09;100513.19;;;6.53;44.31
41467;BME280;27205;53.690;19.948;2023-04-05T12:42:16;100508.64;;;6.31;44.54
41467;BME280;27205;53.690;19.948;2023-04-05T12:47:20;100503.08;;;6.25;44.72
41467;BME280;27205;53.690;19.948;2023-04-05T12:52:26;100505.95;;;6.20;44.67
41467;BME280;27205;53.690;19.948;2023-04-05T12:57:32;100504.33;;;6.12;44.91
41467;BME280;27205;53.690;19.948;2023-04-05T13:02:36;100499.92;;;6.16;45.15
41467;BME280;27205;53.690;19.948;2023-04-05T13:07:40;100502.54;;;6.25;45.39
41467;BME280;27205;53.690;19.948;2023-04-05T13:12:44;100507.02;;;6.40;45.50
41467;BME280;27205;53.690;19.948;2023-04-05T13:17:47;100508.08;;;6.67;45.59
41467;BME280;27205;53.690;19.948;2023-04-05T13:22:55;100507.84;;;6.90;45.62
41467;BME280;27205;53.690;19.948;2023-04-05T13:27:59;100507.56;;;7.09;45.43
41467;BME280;27205;53.690;19.948;2023-04-05T13:33:02;100508.23;;;7.16;45.20
41467;BME280;27205;53.690;19.948;2023-04-05T13:38:06;100506.86;;;7.39;45.04
41467;BME280;27205;53.690;19.948;2023-04-05T13:43:10;100508.80;;;7.62;44.90
41467;BME280;27205;53.690;19.948;2023-04-05T13:48:13;100510.67;;;7.49;45.21
41467;BME280;27205;53.690;19.948;2023-04-05T13:53:16;100514.04;;;7.54;45.36
41467;BME280;27205;53.690;19.948;2023-04-05T13:58:20;100514.38;;;7.64;45.07
41467;BME280;27205;53.690;19.948;2023-04-05T14:03:23;100517.36;;;7.55;45.13
41467;BME280;27205;53.690;19.948;2023-04-05T14:08:27;100517.30;;;7.44;44.86
41467;BME280;27205;53.690;19.948;2023-04-05T14:13:31;100520.59;;;7.55;45.15
41467;BME280;27205;53.690;19.948;2023-04-05T14:18:34;100523.28;;;7.43;45.00
41467;BME280;27205;53.690;19.948;2023-04-05T14:23:38;100526.02;;;7.38;44.79
41467;BME280;27205;53.690;19.948;2023-04-05T14:28:41;100528.81;;;7.05;44.84
41467;BME280;27205;53.690;19.948;2023-04-05T14:33:45;100527.02;;;6.87;44.88
41467;BME280;27205;53.690;19.948;2023-04-05T14:38:48;100530.64;;;6.73;45.20
41467;BME280;27205;53.690;19.948;2023-04-05T14:43:53;100534.40;;;6.64;45.12
41467;BME280;27205;53.690;19.948;2023-04-05T14:48:56;100532.72;;;6.57;45.22
41467;BME280;27205;53.690;19.948;2023-04-05T14:54:00;100534.45;;;6.53;45.43
41467;BME280;27205;53.690;19.948;2023-04-05T14:59:03;100541.70;;;6.57;45.42
41467;BME280;27205;53.690;19.948;2023-04-05T15:04:07;100542.92;;;6.49;45.55
41467;BME280;27205;53.690;19.948;2023-04-05T15:09:11;100538.20;;;6.34;45.78
41467;BME280;27205;53.690;19.948;2023-04-05T15:14:15;100542.67;;;6.20;45.64
41467;BME280;27205;53.690;19.948;2023-04-05T15:19:33;100542.52;;;5.99;45.64
41467;BME280;27205;53.690;19.948;2023-04-05T15:24:39;100542.25;;;5.83;45.74
41467;BME280;27205;53.690;19.948;2023-04-05T15:29:43;100547.55;;;5.80;45.93
41467;BME280;27205;53.690;19.948;2023-04-05T15:34:47;100551.01;;;5.79;45.97
41467;BME280;27205;53.690;19.948;2023-04-05T15:39:51;100555.39;;;5.82;46.09
41467;BME280;27205;53.690;19.948;2023-04-05T15:44:54;100554.07;;;5.86;46.30
41467;BME280;27205;53.690;19.948;2023-04-05T15:49:58;100548.83;;;5.78;46.24
41467;BME280;27205;53.690;19.948;2023-04-05T15:55:02;100554.55;;;5.73;46.27
41467;BME280;27205;53.690;19.948;2023-04-05T16:00:07;100560.64;;;5.69;46.32
41467;BME280;27205;53.690;19.948;2023-04-05T16:05:19;100564.23;;;5.66;46.45
41467;BME280;27205;53.690;19.948;2023-04-05T16:10:59;100566.49;;;5.66;46.84
41467;BME280;27205;53.690;19.948;2023-04-05T16:16:05;100573.73;;;5.63;46.71
41467;BME280;27205;53.690;19.948;2023-04-05T16:21:09;100573.54;;;5.58;46.82
41467;BME280;27205;53.690;19.948;2023-04-05T16:26:13;100575.41;;;5.50;46.82
41467;BME280;27205;53.690;19.948;2023-04-05T16:31:17;100573.71;;;5.45;46.84
41467;BME280;27205;53.690;19.948;2023-04-05T16:36:21;100574.86;;;5.37;47.01
41467;BME280;27205;53.690;19.948;2023-04-05T16:41:24;100580.03;;;5.32;47.07
41467;BME280;27205;53.690;19.948;2023-04-05T16:46:28;100585.08;;;5.25;47.14
41467;BME280;27205;53.690;19.948;2023-04-05T16:51:34;100588.55;;;5.23;47.20
41467;BME280;27205;53.690;19.948;2023-04-05T16:56:38;100593.61;;;5.16;47.20
41467;BME280;27205;53.690;19.948;2023-04-05T17:01:42;100592.20;;;5.07;47.40
41467;BME280;27205;53.690;19.948;2023-04-05T17:06:46;100589.69;;;4.94;47.53
41467;BME280;27205;53.690;19.948;2023-04-05T17:11:50;100590.77;;;4.91;47.73
41467;BME280;27205;53.690;19.948;2023-04-05T17:16:53;100593.83;;;4.86;47.77
41467;BME280;27205;53.690;19.948;2023-04-05T17:21:58;100597.80;;;4.81;47.66
41467;BME280;27205;53.690;19.948;2023-04-05T17:27:02;100599.63;;;4.75;47.69
41467;BME280;27205;53.690;19.948;2023-04-05T17:32:06;100599.65;;;4.73;47.55
41467;BME280;27205;53.690;19.948;2023-04-05T17:37:10;100604.66;;;4.63;47.84
41467;BME280;27205;53.690;19.948;2023-04-05T17:42:13;100609.05;;;4.61;47.78
41467;BME280;27205;53.690;19.948;2023-04-05T17:47:16;100612.73;;;4.59;47.85
41467;BME280;27205;53.690;19.948;2023-04-05T17:52:20;100615.90;;;4.57;47.98
41467;BME280;27205;53.690;19.948;2023-04-05T17:57:24;100613.79;;;4.56;48.05
41467;BME280;27205;53.690;19.948;2023-04-05T18:02:28;100616.86;;;4.55;48.03
41467;BME280;27205;53.690;19.948;2023-04-05T18:07:38;100624.97;;;4.49;48.11
41467;BME280;27205;53.690;19.948;2023-04-05T18:12:42;100625.77;;;4.47;48.36
41467;BME280;27205;53.690;19.948;2023-04-05T18:17:45;100631.63;;;4.46;48.50
41467;BME280;27205;53.690;19.948;2023-04-05T18:22:49;100637.83;;;4.44;48.81
41467;BME280;27205;53.690;19.948;2023-04-05T18:27:53;100637.52;;;4.39;48.91
41467;BME280;27205;53.690;19.948;2023-04-05T18:32:57;100637.80;;;4.34;49.32
41467;BME280;27205;53.690;19.948;2023-04-05T18:38:02;100638.73;;;4.30;49.52
41467;BME280;27205;53.690;19.948;2023-04-05T18:43:06;100635.20;;;4.26;49.73
41467;BME280;27205;53.690;19.948;2023-04-05T18:48:09;100634.68;;;4.24;49.73
41467;BME280;27205;53.690;19.948;2023-04-05T18:53:13;100640.52;;;4.24;50.03
41467;BME280;27205;53.690;19.948;2023-04-05T18:58:18;100639.91;;;4.24;50.07
41467;BME280;27205;53.690;19.948;2023-04-05T19:03:21;100643.52;;;4.27;50.17
41467;BME280;27205;53.690;19.948;2023-04-05T19:08:25;100648.83;;;4.26;50.52
41467;BME280;27205;53.690;19.948;2023-04-05T19:13:29;100656.30;;;4.26;50.67
41467;BME280;27205;53.690;19.948;2023-04-05T19:18:33;100657.16;;;4.26;50.64
41467;BME280;27205;53.690;19.948;2023-04-05T19:23:36;100659.02;;;4.27;50.92
41467;BME280;27205;53.690;19.948;2023-04-05T19:28:40;100667.27;;;4.28;51.07
41467;BME280;27205;53.690;19.948;2023-04-05T19:33:44;100666.11;;;4.28;51.27
41467;BME280;27205;53.690;19.948;2023-04-05T19:38:48;100665.77;;;4.24;51.31
41467;BME280;27205;53.690;19.948;2023-04-05T19:43:53;100663.46;;;4.22;51.57
41467;BME280;27205;53.690;19.948;2023-04-05T19:49:06;100667.38;;;4.20;51.81
41467;BME280;27205;53.690;19.948;2023-04-05T19:54:11;100666.34;;;4.22;51.63
41467;BME280;27205;53.690;19.948;2023-04-05T19:59:28;100663.33;;;4.20;51.55
41467;BME280;27205;53.690;19.948;2023-04-05T20:04:33;100665.33;;;4.22;51.70
41467;BME280;27205;53.690;19.948;2023-04-05T20:09:41;100668.13;;;4.27;51.80
41467;BME280;27205;53.690;19.948;2023-04-05T20:14:45;100671.73;;;4.33;51.82
41467;BME280;27205;53.690;19.948;2023-04-05T20:19:55;100662.82;;;4.41;51.89
41467;BME280;27205;53.690;19.948;2023-04-05T20:25:10;100664.77;;;4.61;51.77
41467;BME280;27205;53.690;19.948;2023-04-05T20:30:25;100665.34;;;4.69;51.75
41467;BME280;27205;53.690;19.948;2023-04-05T20:35:33;100667.75;;;4.70;51.83
41467;BME280;27205;53.690;19.948;2023-04-05T20:40:38;100670.20;;;4.68;51.86
41467;BME280;27205;53.690;19.948;2023-04-05T20:45:41;100666.98;;;4.65;51.98
41467;BME280;27205;53.690;19.948;2023-04-05T20:50:45;100668.44;;;4.67;52.08
41467;BME280;27205;53.690;19.948;2023-04-05T20:55:49;100671.02;;;4.65;52.22
41467;BME280;27205;53.690;19.948;2023-04-05T21:00:53;100668.39;;;4.60;52.00
41467;BME280;27205;53.690;19.948;2023-04-05T21:05:58;100663.20;;;4.52;52.39
41467;BME280;27205;53.690;19.948;2023-04-05T21:11:03;100665.99;;;4.46;52.42
41467;BME280;27205;53.690;19.948;2023-04-05T21:16:07;100665.02;;;4.44;52.43
41467;BME280;27205;53.690;19.948;2023-04-05T21:21:11;100665.70;;;4.46;52.73
41467;BME280;27205;53.690;19.948;2023-04-05T21:26:14;100665.58;;;4.55;52.68
41467;BME280;27205;53.690;19.948;2023-04-05T21:31:18;100660.79;;;4.61;52.95
41467;BME280;27205;53.690;19.948;2023-04-05T21:36:22;100658.12;;;4.64;52.82
41467;BME280;27205;53.690;19.948;2023-04-05T21:41:25;100657.59;;;4.56;52.96
41467;BME280;27205;53.690;19.948;2023-04-05T21:46:29;100660.98;;;4.44;53.14
41467;BME280;27205;53.690;19.948;2023-04-05T21:51:32;100659.98;;;4.31;53.28
41467;BME280;27205;53.690;19.948;2023-04-05T21:56:36;100657.11;;;4.06;53.66
41467;BME280;27205;53.690;19.948;2023-04-05T22:01:40;100655.09;;;4.06;53.77
41467;BME280;27205;53.690;19.948;2023-04-05T22:06:43;100653.94;;;4.05;53.79
41467;BME280;27205;53.690;19.948;2023-04-05T22:11:48;100655.93;;;4.02;53.69
41467;BME280;27205;53.690;19.948;2023-04-05T22:16:52;100656.75;;;3.98;53.85
41467;BME280;27205;53.690;19.948;2023-04-05T22:21:56;100654.89;;;3.98;53.86
41467;BME280;27205;53.690;19.948;2023-04-05T22:26:59;100657.39;;;3.98;53.95
41467;BME280;27205;53.690;19.948;2023-04-05T22:32:05;100659.15;;;3.94;54.04
41467;BME280;27205;53.690;19.948;2023-04-05T22:37:09;100662.98;;;3.80;54.46
41467;BME280;27205;53.690;19.948;2023-04-05T22:42:13;100669.76;;;3.78;54.55
41467;BME280;27205;53.690;19.948;2023-04-05T22:47:16;100670.88;;;3.69;55.18
41467;BME280;27205;53.690;19.948;2023-04-05T22:52:20;100669.20;;;3.66;55.46
41467;BME280;27205;53.690;19.948;2023-04-05T22:57:23;100663.46;;;3.57;55.59
41467;BME280;27205;53.690;19.948;2023-04-05T23:02:27;100661.19;;;3.50;55.72
41467;BME280;27205;53.690;19.948;2023-04-05T23:07:32;100660.13;;;3.48;55.75
41467;BME280;27205;53.690;19.948;2023-04-05T23:12:35;100657.05;;;3.46;55.56
41467;BME280;27205;53.690;19.948;2023-04-05T23:17:39;100657.33;;;3.41;55.92
41467;BME280;27205;53.690;19.948;2023-04-05T23:22:43;100652.12;;;3.40;55.90
41467;BME280;27205;53.690;19.948;2023-04-05T23:27:46;100649.29;;;3.43;55.95
41467;BME280;27205;53.690;19.948;2023-04-05T23:32:50;100650.52;;;3.44;55.88
41467;BME280;27205;53.690;19.948;2023-04-05T23:37:54;100651.35;;;3.39;56.16
41467;BME280;27205;53.690;19.948;2023-04-05T23:42:57;100649.21;;;3.36;55.99
41467;BME280;27205;53.690;19.948;2023-04-05T23:48:01;100647.14;;;3.33;56.05
41467;BME280;27205;53.690;19.948;2023-04-05T23:53:05;100647.59;;;3.35;56.28
41467;BME280;27205;53.690;19.948;2023-04-05T23:58:08;100648.52;;;3.35;56.08
